createdAt,value
2022-09-28T00:00:15.435Z,98540.80
2022-09-28T00:02:45.540Z,98543.03
2022-09-28T00:05:15.716Z,98542.20
2022-09-28T00:07:45.588Z,98541.28
2022-09-28T00:10:16.054Z,98537.44
2022-09-28T00:12:45.640Z,98536.81
2022-09-28T00:15:15.196Z,98527.95
2022-09-28T00:17:47.827Z,98522.70
2022-09-28T00:20:18.077Z,98525.47
2022-09-28T00:22:48.151Z,98518.14
2022-09-28T00:25:18.159Z,98521.95
2022-09-28T00:27:52.233Z,98514.02
2022-09-28T00:30:22.592Z,98506.17
2022-09-28T00:32:52.764Z,98505.60
2022-09-28T00:35:22.344Z,98507.83
2022-09-28T00:37:52.211Z,98500.98
2022-09-28T00:40:21.777Z,98496.00
2022-09-28T00:42:51.650Z,98496.77
2022-09-28T00:45:22.535Z,98492.66
2022-09-28T00:47:56.237Z,98486.38
2022-09-28T00:50:32.169Z,98486.38
2022-09-28T00:53:15.911Z,98491.52
2022-09-28T00:55:51.542Z,98496.08
2022-09-28T00:58:24.336Z,98493.92
2022-09-28T01:00:56.526Z,98490.15
2022-09-28T01:03:29.301Z,98492.89
2022-09-28T01:06:02.436Z,98489.97
2022-09-28T01:08:34.401Z,98486.95
2022-09-28T01:11:06.403Z,98495.52
2022-09-28T01:13:37.120Z,98489.23
2022-09-28T01:16:44.756Z,98489.23
2022-09-28T01:19:55.297Z,98483.70
2022-09-28T01:22:37.107Z,98486.65
2022-09-28T01:25:34.711Z,98484.59
2022-09-28T01:28:07.849Z,98488.28
2022-09-28T01:30:46.556Z,98481.23
2022-09-28T01:33:20.470Z,98471.45
2022-09-28T01:35:53.317Z,98471.45
2022-09-28T01:38:28.893Z,98472.17
2022-09-28T01:41:01.713Z,98472.17
2022-09-28T01:43:34.606Z,98471.64
2022-09-28T01:46:21.634Z,98472.16
2022-09-28T01:48:54.826Z,98467.56
2022-09-28T01:51:39.521Z,98466.68
2022-09-28T01:54:12.365Z,98461.83
2022-09-28T01:56:52.569Z,98455.02
2022-09-28T01:59:25.172Z,98453.66
2022-09-28T02:01:58.238Z,98458.48
2022-09-28T02:04:36.757Z,98461.42
2022-09-28T02:07:09.847Z,98465.05
2022-09-28T02:09:45.447Z,98465.66
2022-09-28T02:12:23.869Z,98463.74
2022-09-28T02:14:56.642Z,98459.45
2022-09-28T02:17:27.573Z,98460.58
2022-09-28T02:20:04.689Z,98458.78
2022-09-28T02:22:46.903Z,98464.30
2022-09-28T02:25:43.885Z,98461.41
2022-09-28T02:28:14.834Z,98465.61
2022-09-28T02:30:46.073Z,98465.61
2022-09-28T02:33:21.661Z,98467.27
2022-09-28T02:35:52.190Z,98461.19
2022-09-28T02:38:22.113Z,98464.13
2022-09-28T02:40:58.842Z,98458.78
2022-09-28T02:43:34.316Z,98462.47
2022-09-28T02:46:16.279Z,98458.45
2022-09-28T02:49:04.879Z,98458.45
2022-09-28T02:51:41.656Z,98461.34
2022-09-28T02:54:36.396Z,98458.94
2022-09-28T02:57:15.686Z,98451.08
2022-09-28T02:59:54.769Z,98454.66
2022-09-28T03:03:00.820Z,98452.48
2022-09-28T03:05:39.906Z,98452.89
2022-09-28T03:08:18.960Z,98454.30
2022-09-28T03:10:58.092Z,98455.50
2022-09-28T03:13:29.429Z,98455.02
2022-09-28T03:16:13.956Z,98463.13
2022-09-28T03:18:44.574Z,98463.56
2022-09-28T03:21:15.071Z,98461.16
2022-09-28T03:23:45.454Z,98460.89
2022-09-28T03:26:16.868Z,98460.37
2022-09-28T03:28:46.732Z,98465.81
2022-09-28T03:31:18.301Z,98458.50
2022-09-28T03:33:48.169Z,98460.12
2022-09-28T03:36:18.125Z,98462.13
2022-09-28T03:38:47.848Z,98460.07
2022-09-28T03:41:21.976Z,98459.80
2022-09-28T03:43:51.908Z,98461.47
2022-09-28T03:46:21.619Z,98462.78
2022-09-28T03:48:53.094Z,98467.08
2022-09-28T03:51:22.724Z,98461.30
2022-09-28T03:53:53.511Z,98460.42
2022-09-28T03:56:23.364Z,98458.89
2022-09-28T03:58:53.167Z,98461.82
2022-09-28T04:01:23.024Z,98461.47
2022-09-28T04:03:56.929Z,98443.16
2022-09-28T04:06:34.931Z,98458.45
2022-09-28T04:09:07.806Z,98461.17
2022-09-28T04:11:53.145Z,98463.05
2022-09-28T04:14:10.290Z,98455.86
2022-09-28T04:16:39.949Z,98463.19
2022-09-28T04:19:11.445Z,98459.38
2022-09-28T04:21:44.948Z,98451.22
2022-09-28T04:24:16.234Z,98450.56
2022-09-28T04:26:46.029Z,98448.55
2022-09-28T04:29:19.400Z,98449.16
2022-09-28T04:32:01.596Z,98443.69
2022-09-28T04:34:43.720Z,98443.30
2022-09-28T04:37:15.105Z,98443.90
2022-09-28T04:39:48.561Z,98447.63
2022-09-28T04:42:19.582Z,98445.92
2022-09-28T04:44:51.093Z,98445.57
2022-09-28T04:47:20.881Z,98444.96
2022-09-28T04:50:09.474Z,98450.17
2022-09-28T04:52:40.975Z,98452.53
2022-09-28T04:55:14.432Z,98457.70
2022-09-28T04:57:44.221Z,98454.37
2022-09-28T05:00:15.727Z,98454.55
2022-09-28T05:02:47.236Z,98448.38
2022-09-28T05:05:24.797Z,98452.72
2022-09-28T05:08:00.691Z,98452.51
2022-09-28T05:10:30.644Z,98455.14
2022-09-28T05:13:04.082Z,98447.04
2022-09-28T05:15:36.109Z,98448.70
2022-09-28T05:18:07.637Z,98449.45
2022-09-28T05:20:45.007Z,98447.61
2022-09-28T05:23:20.911Z,98441.34
2022-09-28T05:25:51.048Z,98449.97
2022-09-28T05:28:25.596Z,98436.81
2022-09-28T05:31:05.422Z,98432.42
2022-09-28T05:33:53.451Z,98436.44
2022-09-28T05:36:24.514Z,98439.17
2022-09-28T05:39:12.599Z,98433.46
2022-09-28T05:41:42.425Z,98433.73
2022-09-28T05:44:12.215Z,98431.41
2022-09-28T05:46:42.170Z,98442.75
2022-09-28T05:49:13.118Z,98431.94
2022-09-28T05:51:43.029Z,98430.92
2022-09-28T05:54:12.678Z,98423.14
2022-09-28T05:56:49.550Z,98423.55
2022-09-28T05:59:19.127Z,98425.84
2022-09-28T06:01:48.940Z,98425.98
2022-09-28T06:04:19.041Z,98421.09
2022-09-28T06:06:50.279Z,98417.65
2022-09-28T06:09:25.151Z,98424.78
2022-09-28T06:11:54.727Z,98422.36
2022-09-28T06:14:29.167Z,98420.33
2022-09-28T06:16:59.523Z,98420.80
2022-09-28T06:19:29.438Z,98423.97
2022-09-28T06:22:01.034Z,98423.97
2022-09-28T06:24:32.665Z,98432.08
2022-09-28T06:27:02.938Z,98429.44
2022-09-28T06:29:32.801Z,98425.27
2022-09-28T06:32:02.903Z,98428.34
2022-09-28T06:34:32.698Z,98429.17
2022-09-28T06:37:04.649Z,98429.17
2022-09-28T06:39:35.071Z,98426.73
2022-09-28T06:42:05.114Z,98427.59
2022-09-28T06:44:42.319Z,98427.59
2022-09-28T06:47:29.057Z,98414.88
2022-09-28T06:50:01.018Z,98414.88
2022-09-28T06:52:53.874Z,98408.34
2022-09-28T06:55:29.260Z,98401.30
2022-09-28T06:58:02.957Z,98391.84
2022-09-28T07:00:35.875Z,98386.77
2022-09-28T07:03:09.363Z,98385.73
2022-09-28T07:05:46.444Z,98386.27
2022-09-28T07:08:34.960Z,98379.33
2022-09-28T07:11:08.755Z,98381.08
2022-09-28T07:13:51.025Z,98381.83
2022-09-28T07:16:17.661Z,98382.22
2022-09-28T07:18:48.225Z,98388.56
2022-09-28T07:21:28.313Z,98384.06
2022-09-28T07:23:54.236Z,98385.94
2022-09-28T07:26:29.052Z,98396.62
2022-09-28T07:29:06.688Z,98396.62
2022-09-28T07:31:44.180Z,98387.70
2022-09-28T07:34:24.340Z,98392.14
2022-09-28T07:36:59.518Z,98398.38
2022-09-28T07:39:31.088Z,98398.72
2022-09-28T07:42:02.912Z,98390.52
2022-09-28T07:44:35.953Z,98391.82
2022-09-28T07:47:06.988Z,98387.52
2022-09-28T07:49:38.508Z,98381.00
2022-09-28T07:52:19.362Z,98380.42
2022-09-28T07:54:52.137Z,98377.66
2022-09-28T07:57:30.112Z,98384.96
2022-09-28T08:00:02.453Z,98381.34
2022-09-28T08:02:34.818Z,98379.22
2022-09-28T08:05:04.764Z,98383.34
2022-09-28T08:07:36.214Z,98378.78
2022-09-28T08:10:07.500Z,98383.57
2022-09-28T08:13:00.565Z,98381.66
2022-09-28T08:15:40.772Z,98375.48
2022-09-28T08:21:13.694Z,98372.70
2022-09-28T08:23:43.713Z,98379.30
2022-09-28T08:26:15.685Z,98381.09
2022-09-28T08:28:47.792Z,98381.09
2022-09-28T08:31:34.849Z,98369.55
2022-09-28T08:34:09.164Z,98367.81
2022-09-28T08:36:53.010Z,98369.56
2022-09-28T08:39:40.467Z,98364.12
2022-09-28T08:42:32.697Z,98364.12
2022-09-28T08:45:15.744Z,98364.27
2022-09-28T08:48:10.942Z,98365.60
2022-09-28T08:51:00.427Z,98360.60
2022-09-28T08:53:56.135Z,98359.31
2022-09-28T08:56:42.262Z,98354.36
2022-09-28T08:59:18.800Z,98357.27
2022-09-28T09:01:56.403Z,98349.17
2022-09-28T09:04:24.575Z,98354.23
2022-09-28T09:07:37.664Z,98357.87
2022-09-28T09:10:14.842Z,98355.71
2022-09-28T09:13:04.917Z,98355.06
2022-09-28T09:15:41.594Z,98346.75
2022-09-28T09:18:27.098Z,98346.75
2022-09-28T09:21:02.307Z,98340.95
2022-09-28T09:23:48.823Z,98345.34
2022-09-28T09:26:26.274Z,98339.45
2022-09-28T09:29:24.739Z,98344.71
2022-09-28T09:32:04.036Z,98340.24
2022-09-28T09:34:46.102Z,98345.05
2022-09-28T09:38:00.305Z,98338.58
2022-09-28T09:40:42.003Z,98338.58
2022-09-28T09:43:31.776Z,98330.77
2022-09-28T09:46:12.892Z,98327.07
2022-09-28T09:49:11.313Z,98327.80
2022-09-28T09:52:02.438Z,98328.64
2022-09-28T09:54:47.060Z,98340.28
2022-09-28T09:57:27.759Z,98331.80
2022-09-28T10:00:16.392Z,98323.52
2022-09-28T10:02:51.891Z,98316.13
2022-09-28T10:05:28.955Z,98317.39
2022-09-28T10:08:08.009Z,98331.20
2022-09-28T10:10:41.274Z,98332.87
2022-09-28T10:13:14.801Z,98331.88
2022-09-28T10:15:46.882Z,98327.52
2022-09-28T10:18:24.620Z,98323.66
2022-09-28T10:21:20.052Z,98327.01
2022-09-28T10:23:54.584Z,98327.97
2022-09-28T10:26:27.284Z,98326.27
2022-09-28T10:29:06.201Z,98322.75
2022-09-28T10:31:51.269Z,98324.77
2022-09-28T10:34:32.531Z,98326.36
2022-09-28T10:37:07.675Z,98326.68
2022-09-28T10:39:56.924Z,98334.87
2022-09-28T10:42:33.826Z,98334.87
2022-09-28T10:45:23.457Z,98337.35
2022-09-28T10:47:54.054Z,98341.09
2022-09-28T10:50:28.960Z,98339.35
2022-09-28T10:53:15.090Z,98345.94
2022-09-28T10:56:05.784Z,98339.27
2022-09-28T10:58:42.070Z,98350.05
2022-09-28T11:01:22.197Z,98353.69
2022-09-28T11:04:01.039Z,98359.19
2022-09-28T11:06:34.294Z,98365.67
2022-09-28T11:09:07.361Z,98369.96
2022-09-28T11:11:44.109Z,98372.23
2022-09-28T11:14:42.946Z,98368.55
2022-09-28T11:17:36.657Z,98378.33
2022-09-28T11:20:28.236Z,98371.45
2022-09-28T11:23:23.047Z,98368.23
2022-09-28T11:26:09.350Z,98363.10
2022-09-28T11:28:41.225Z,98355.67
2022-09-28T11:31:14.966Z,98341.99
2022-09-28T11:34:07.159Z,98353.93
2022-09-28T11:36:47.137Z,98353.70
2022-09-28T11:39:37.388Z,98353.70
2022-09-28T11:42:23.336Z,98354.66
2022-09-28T11:44:58.996Z,98348.25
2022-09-28T11:47:40.341Z,98353.26
2022-09-28T11:50:25.200Z,98365.13
2022-09-28T11:53:03.930Z,98366.91
2022-09-28T11:55:39.526Z,98368.91
2022-09-28T11:58:20.771Z,98364.36
2022-09-28T12:00:57.197Z,98365.87
2022-09-28T12:03:43.818Z,98361.97
2022-09-28T12:06:19.445Z,98356.38
2022-09-28T12:08:53.655Z,98349.68
2022-09-28T12:11:43.076Z,98345.41
2022-09-28T12:14:32.155Z,98341.16
2022-09-28T12:17:19.258Z,98342.53
2022-09-28T12:19:57.923Z,98335.58
2022-09-28T12:22:36.335Z,98332.17
2022-09-28T12:25:09.613Z,98330.93
2022-09-28T12:27:55.171Z,98331.13
2022-09-28T12:30:26.291Z,98324.06
2022-09-28T12:32:59.103Z,98321.33
2022-09-28T12:35:35.026Z,98321.70
2022-09-28T12:38:22.846Z,98327.95
2022-09-28T12:41:05.475Z,98322.11
2022-09-28T12:43:54.694Z,98317.27
2022-09-28T12:46:48.293Z,98313.14
2022-09-28T12:52:20.679Z,98290.11
2022-09-28T12:54:56.482Z,98293.67
2022-09-28T12:57:52.221Z,98282.94
2022-09-28T13:00:26.144Z,98274.52
2022-09-28T13:03:06.846Z,98279.31
2022-09-28T13:06:13.137Z,98274.88
2022-09-28T13:09:16.968Z,98274.56
2022-09-28T13:11:58.980Z,98274.44
2022-09-28T13:14:57.449Z,98272.24
2022-09-28T13:17:48.006Z,98267.02
2022-09-28T13:20:42.158Z,98264.73
2022-09-28T13:23:17.229Z,98273.97
2022-09-28T13:26:04.969Z,98267.87
2022-09-28T13:28:37.425Z,98271.52
2022-09-28T13:31:08.214Z,98280.59
2022-09-28T13:33:41.067Z,98275.49
2022-09-28T13:36:31.775Z,98272.84
2022-09-28T13:39:02.364Z,98274.16
2022-09-28T13:41:34.906Z,98277.30
2022-09-28T13:44:16.989Z,98266.84
2022-09-28T13:47:01.879Z,98261.26
2022-09-28T13:49:40.827Z,98261.26
2022-09-28T13:52:22.924Z,98268.52
2022-09-28T13:54:59.097Z,98268.52
2022-09-28T13:57:56.710Z,98268.51
2022-09-28T14:00:47.747Z,98263.88
2022-09-28T14:03:57.357Z,98273.17
2022-09-28T14:06:34.408Z,98269.67
2022-09-28T14:09:16.031Z,98253.97
2022-09-28T14:12:00.652Z,98253.89
2022-09-28T14:14:48.893Z,98256.09
2022-09-28T14:17:31.173Z,98261.87
2022-09-28T14:20:18.416Z,98264.70
2022-09-28T14:23:01.009Z,98260.06
2022-09-28T14:25:36.976Z,98255.47
2022-09-28T14:28:28.869Z,98253.30
2022-09-28T14:31:00.623Z,98251.66
2022-09-28T14:33:32.987Z,98256.47
2022-09-28T14:36:10.634Z,98255.97
2022-09-28T14:39:05.583Z,98252.66
2022-09-28T14:41:41.569Z,98252.48
2022-09-28T14:44:18.716Z,98251.16
2022-09-28T14:46:49.041Z,98250.67
2022-09-28T14:49:23.349Z,98242.58
2022-09-28T14:52:00.840Z,98242.39
2022-09-28T14:54:42.557Z,98240.41
2022-09-28T14:57:22.482Z,98239.09
2022-09-28T14:59:52.489Z,98240.57
2022-09-28T15:02:28.167Z,98236.28
2022-09-28T15:05:15.964Z,98235.61
2022-09-28T15:07:49.821Z,98234.30
2022-09-28T15:10:30.301Z,98236.61
2022-09-28T15:13:05.730Z,98228.43
2022-09-28T15:15:41.563Z,98227.61
2022-09-28T15:18:19.102Z,98233.61
2022-09-28T15:20:50.749Z,98230.79
2022-09-28T15:23:29.516Z,98242.23
2022-09-28T15:25:59.414Z,98243.22
2022-09-28T15:28:39.412Z,98248.53
2022-09-28T15:31:14.068Z,98249.36
2022-09-28T15:34:02.074Z,98242.58
2022-09-28T15:36:38.339Z,98247.02
2022-09-28T15:39:17.417Z,98247.02
2022-09-28T15:41:49.777Z,98250.83
2022-09-28T15:44:37.192Z,98266.03
2022-09-28T15:47:28.294Z,98266.88
2022-09-28T15:50:04.007Z,98271.14
2022-09-28T15:52:37.357Z,98272.28
2022-09-28T15:55:21.912Z,98277.88
2022-09-28T15:58:20.264Z,98281.84
2022-09-28T16:00:54.728Z,98283.85
2022-09-28T16:03:31.287Z,98283.31
2022-09-28T16:06:07.330Z,98292.77
2022-09-28T16:08:47.609Z,98292.77
2022-09-28T16:11:31.498Z,98293.14
2022-09-28T16:14:10.325Z,98293.41
2022-09-28T16:16:53.166Z,98302.00
2022-09-28T16:19:28.865Z,98302.98
2022-09-28T16:22:00.796Z,98302.84
2022-09-28T16:24:38.395Z,98303.95
2022-09-28T16:27:28.157Z,98303.95
2022-09-28T16:30:14.780Z,98301.47
2022-09-28T16:32:56.482Z,98298.83
2022-09-28T16:35:29.336Z,98297.02
2022-09-28T16:38:16.503Z,98301.56
2022-09-28T16:40:53.983Z,98305.02
2022-09-28T16:43:27.287Z,98306.62
2022-09-28T16:46:17.728Z,98304.91
2022-09-28T16:48:51.713Z,98312.17
2022-09-28T16:51:24.320Z,98316.70
2022-09-28T16:54:12.036Z,98319.84
2022-09-28T16:56:44.929Z,98321.23
2022-09-28T16:59:14.869Z,98323.13
2022-09-28T17:01:44.825Z,98330.02
2022-09-28T17:04:16.217Z,98331.16
2022-09-28T17:06:46.013Z,98323.70
2022-09-28T17:09:27.781Z,98329.81
2022-09-28T17:12:00.044Z,98335.41
2022-09-28T17:14:31.906Z,98333.07
2022-09-28T17:17:08.911Z,98335.03
2022-09-28T17:19:35.428Z,98344.47
2022-09-28T17:22:11.954Z,98345.48
2022-09-28T17:24:45.300Z,98345.72
2022-09-28T17:27:18.423Z,98353.05
2022-09-28T17:29:48.226Z,98358.47
2022-09-28T17:32:24.317Z,98369.52
2022-09-28T17:35:06.451Z,98361.17
2022-09-28T17:37:26.987Z,98363.45
2022-09-28T17:39:56.917Z,98364.48
2022-09-28T17:42:26.790Z,98372.81
2022-09-28T17:44:57.062Z,98375.75
2022-09-28T17:47:34.314Z,98382.88
2022-09-28T17:50:25.822Z,98387.98
2022-09-28T17:52:57.741Z,98389.67
2022-09-28T17:55:31.722Z,98394.55
2022-09-28T17:58:21.583Z,98400.42
2022-09-28T18:00:52.755Z,98400.42
2022-09-28T18:03:24.502Z,98405.59
2022-09-28T18:06:10.466Z,98407.44
2022-09-28T18:08:43.840Z,98405.83
2022-09-28T18:11:15.443Z,98406.42
2022-09-28T18:13:46.984Z,98406.80
2022-09-28T18:16:17.137Z,98407.40
2022-09-28T18:18:49.280Z,98407.40
2022-09-28T18:21:19.789Z,98412.41
2022-09-28T18:23:49.925Z,98417.95
2022-09-28T18:26:19.703Z,98419.28
2022-09-28T18:28:52.744Z,98425.73
2022-09-28T18:31:22.838Z,98432.04
2022-09-28T18:33:53.920Z,98434.97
2022-09-28T18:36:31.539Z,98436.20
2022-09-28T18:39:02.057Z,98436.20
2022-09-28T18:41:32.347Z,98443.76
2022-09-28T18:44:02.430Z,98443.76
2022-09-28T18:46:34.366Z,98450.11
2022-09-28T18:49:07.537Z,98450.11
2022-09-28T18:51:39.540Z,98452.21
2022-09-28T18:54:09.042Z,98468.82
2022-09-28T18:56:42.652Z,98472.59
2022-09-28T18:59:12.657Z,98474.69
2022-09-28T19:01:43.437Z,98472.95
2022-09-28T19:04:13.596Z,98478.14
2022-09-28T19:06:44.994Z,98492.11
2022-09-28T19:09:13.844Z,98487.79
2022-09-28T19:11:43.331Z,98490.91
2022-09-28T19:14:14.835Z,98493.00
2022-09-28T19:16:46.013Z,98492.65
2022-09-28T19:19:18.822Z,98497.58
2022-09-28T19:21:51.342Z,98505.16
2022-09-28T19:24:21.309Z,98500.42
2022-09-28T19:26:53.199Z,98497.94
2022-09-28T19:29:24.604Z,98501.25
2022-09-28T19:31:56.009Z,98502.84
2022-09-28T19:34:26.432Z,98502.50
2022-09-28T19:36:55.848Z,98502.28
2022-09-28T19:39:25.715Z,98506.41
2022-09-28T19:41:57.152Z,98502.09
2022-09-28T19:44:29.189Z,98502.09
2022-09-28T19:47:05.483Z,98511.44
2022-09-28T19:49:38.044Z,98511.58
2022-09-28T19:52:14.742Z,98505.75
2022-09-28T19:54:51.771Z,98499.37
2022-09-28T19:57:21.521Z,98507.86
2022-09-28T19:59:53.751Z,98509.18
2022-09-28T20:02:24.640Z,98515.70
2022-09-28T20:04:55.549Z,98513.20
2022-09-28T20:07:25.487Z,98531.00
2022-09-28T20:09:55.283Z,98531.00
2022-09-28T20:12:25.180Z,98541.89
2022-09-28T20:14:54.985Z,98547.77
2022-09-28T20:17:24.861Z,98551.17
2022-09-28T20:19:55.670Z,98554.47
2022-09-28T20:22:24.634Z,98560.00
2022-09-28T20:24:54.051Z,98570.31
2022-09-28T20:27:26.487Z,98574.77
2022-09-28T20:29:56.211Z,98582.34
2022-09-28T20:32:26.136Z,98582.34
2022-09-28T20:34:56.951Z,98584.70
2022-09-28T20:37:26.738Z,98582.00
2022-09-28T20:39:58.230Z,98580.30
2022-09-28T20:42:29.833Z,98580.30
2022-09-28T20:44:59.903Z,98587.31
2022-09-28T20:47:29.983Z,98593.51
2022-09-28T20:50:01.388Z,98593.10
2022-09-28T20:52:31.173Z,98594.23
2022-09-28T20:55:01.979Z,98595.73
2022-09-28T20:57:33.262Z,98597.75
2022-09-28T21:00:05.869Z,98601.97
2022-09-28T21:02:35.527Z,98608.03
2022-09-28T21:05:06.792Z,98610.84
2022-09-28T21:07:36.589Z,98613.55
2022-09-28T21:10:11.637Z,98620.58
2022-09-28T21:12:42.945Z,98633.78
2022-09-28T21:15:12.710Z,98633.55
2022-09-28T21:17:43.646Z,98636.92
2022-09-28T21:20:15.376Z,98635.16
2022-09-28T21:22:45.261Z,98634.23
2022-09-28T21:25:15.096Z,98636.00
2022-09-28T21:27:46.057Z,98630.73
2022-09-28T21:30:17.503Z,98636.22
2022-09-28T21:32:49.414Z,98635.48
2022-09-28T21:35:18.912Z,98639.65
2022-09-28T21:37:48.719Z,98642.66
2022-09-28T21:40:20.007Z,98654.31
2022-09-28T21:42:49.707Z,98654.31
2022-09-28T21:45:19.442Z,98656.10
2022-09-28T21:47:50.875Z,98659.34
2022-09-28T21:50:22.756Z,98659.70
2022-09-28T21:52:57.729Z,98663.92
2022-09-28T21:55:27.528Z,98665.98
2022-09-28T21:57:57.365Z,98664.70
2022-09-28T22:00:34.710Z,98661.46
2022-09-28T22:03:05.297Z,98671.72
2022-09-28T22:05:34.899Z,98672.01
2022-09-28T22:08:04.700Z,98671.33
2022-09-28T22:10:34.759Z,98670.30
2022-09-28T22:13:04.582Z,98672.95
2022-09-28T22:15:34.454Z,98673.34
2022-09-28T22:18:04.390Z,98675.06
2022-09-28T22:20:34.186Z,98676.45
2022-09-28T22:23:03.989Z,98678.05
2022-09-28T22:25:33.780Z,98680.39
2022-09-28T22:28:03.880Z,98682.76
2022-09-28T22:30:35.760Z,98684.38
2022-09-28T22:33:06.852Z,98687.27
2022-09-28T22:35:36.641Z,98682.84
2022-09-28T22:38:07.414Z,98683.71
2022-09-28T22:40:38.303Z,98680.25
2022-09-28T22:43:13.251Z,98688.85
2022-09-28T22:45:43.612Z,98690.92
2022-09-28T22:48:13.669Z,98690.09
2022-09-28T22:50:51.178Z,98691.31
2022-09-28T22:53:20.843Z,98685.23
2022-09-28T22:55:51.090Z,98691.20
2022-09-28T22:58:21.321Z,98688.58
2022-09-28T23:00:51.596Z,98687.50
2022-09-28T23:03:21.524Z,98690.25
2022-09-28T23:06:09.013Z,98688.58
2022-09-28T23:08:39.422Z,98689.06
2022-09-28T23:11:09.361Z,98698.20
2022-09-28T23:13:39.178Z,98701.94
2022-09-28T23:16:11.309Z,98704.45
2022-09-28T23:18:41.902Z,98704.93
2022-09-28T23:21:17.634Z,98704.45
2022-09-28T23:23:49.505Z,98707.55
2022-09-28T23:26:21.933Z,98703.61
2022-09-28T23:28:52.635Z,98709.14
2022-09-28T23:31:31.592Z,98705.92
2022-09-28T23:34:03.720Z,98708.89
2022-09-28T23:36:34.528Z,98708.53
2022-09-28T23:39:04.846Z,98700.45
2022-09-28T23:41:34.936Z,98705.58
2022-09-28T23:44:04.967Z,98709.49
2022-09-28T23:46:34.804Z,98708.30
2022-09-28T23:49:05.012Z,98706.48
2022-09-28T23:51:34.816Z,98709.09
2022-09-28T23:54:06.738Z,98707.91
2022-09-28T23:56:36.541Z,98709.02
2022-09-28T23:59:07.048Z,98711.31
